createdAt,value
2022-10-23T00:00:23.409Z,98.8
2022-10-23T00:04:19.467Z,98.8
2022-10-23T00:05:18.967Z,98.8
2022-10-23T00:06:20.981Z,98.8
2022-10-23T00:07:22.997Z,98.8
2022-10-23T00:08:24.966Z,98.8
2022-10-23T00:09:26.958Z,98.8
2022-10-23T00:10:28.984Z,98.8
2022-10-23T00:11:31.961Z,98.8
2022-10-23T00:12:33.969Z,98.8
2022-10-23T00:13:35.962Z,98.8
2022-10-23T00:14:37.964Z,98.8
2022-10-23T00:18:16.248Z,98.8
2022-10-23T00:18:16.734Z,98.8
2022-10-23T00:18:23.351Z,98.8
2022-10-23T00:19:23.382Z,98.8
2022-10-23T00:20:23.387Z,98.8
2022-10-23T00:22:48.461Z,98.8
2022-10-23T00:24:00.272Z,98.8
2022-10-23T00:25:02.182Z,98.8
2022-10-23T00:26:04.239Z,98.8
2022-10-23T00:27:07.191Z,98.8
2022-10-23T00:28:09.200Z,98.8
2022-10-23T00:29:11.189Z,98.8
2022-10-23T00:30:23.354Z,98.8
2022-10-23T00:31:23.375Z,98.8
2022-10-23T00:32:23.374Z,98.8
2022-10-23T00:33:23.362Z,98.8
2022-10-23T00:34:23.390Z,98.8
2022-10-23T00:35:25.296Z,98.8
2022-10-23T00:36:27.219Z,98.8
2022-10-23T00:40:24.671Z,98.8
2022-10-23T00:40:41.555Z,98.8
2022-10-23T00:43:03.627Z,98.8
2022-10-23T00:43:24.314Z,98.8
2022-10-23T00:44:23.366Z,98.8
2022-10-23T00:45:23.370Z,98.8
2022-10-23T00:46:23.387Z,98.8
2022-10-23T00:47:23.372Z,98.8
2022-10-23T00:48:23.376Z,98.8
2022-10-23T00:49:23.368Z,98.8
2022-10-23T00:50:23.381Z,98.8
2022-10-23T00:51:23.428Z,98.8
2022-10-23T00:52:23.373Z,98.8
2022-10-23T00:53:23.379Z,98.8
2022-10-23T00:54:24.848Z,98.8
2022-10-23T00:55:23.368Z,98.8
2022-10-23T00:56:23.390Z,98.8
2022-10-23T00:57:23.719Z,98.8
2022-10-23T00:58:25.548Z,98.8
2022-10-23T00:59:27.556Z,98.8
2022-10-23T01:00:30.567Z,98.8
2022-10-23T01:01:32.716Z,98.8
2022-10-23T01:02:34.691Z,98.8
2022-10-23T01:03:36.559Z,98.8
2022-10-23T01:04:38.544Z,98.8
2022-10-23T01:05:40.609Z,98.8
2022-10-23T01:06:42.596Z,98.8
2022-10-23T01:07:44.906Z,98.8
2022-10-23T01:08:46.556Z,98.8
2022-10-23T01:09:48.549Z,98.8
2022-10-23T01:10:50.607Z,98.8
2022-10-23T01:11:52.559Z,98.8
2022-10-23T01:12:54.559Z,98.8
2022-10-23T01:13:56.581Z,98.8
2022-10-23T01:14:58.563Z,98.8
2022-10-23T01:16:00.582Z,98.8
2022-10-23T01:17:02.557Z,98.8
2022-10-23T01:18:04.565Z,98.8
2022-10-23T01:19:06.585Z,98.8
2022-10-23T01:20:09.586Z,98.8
2022-10-23T01:21:11.563Z,98.8
2022-10-23T01:22:13.650Z,98.8
2022-10-23T01:23:15.563Z,98.8
2022-10-23T01:24:17.569Z,98.8
2022-10-23T01:25:19.590Z,98.8
2022-10-23T01:26:21.592Z,98.8
2022-10-23T01:27:23.706Z,98.8
2022-10-23T01:28:25.583Z,98.8
2022-10-23T01:29:27.568Z,98.8
2022-10-23T01:30:29.665Z,98.8
2022-10-23T01:31:31.609Z,98.8
2022-10-23T01:32:33.582Z,98.8
2022-10-23T01:33:35.582Z,98.8
2022-10-23T01:34:37.593Z,98.8
2022-10-23T01:35:40.562Z,98.8
2022-10-23T01:36:42.586Z,98.8
2022-10-23T01:37:44.584Z,98.8
2022-10-23T01:38:46.582Z,98.8
2022-10-23T01:39:48.574Z,98.8
2022-10-23T01:40:50.575Z,98.8
2022-10-23T01:41:52.607Z,98.8
2022-10-23T01:42:54.573Z,98.8
2022-10-23T01:43:56.578Z,98.8
2022-10-23T01:44:58.582Z,98.8
2022-10-23T01:46:00.610Z,98.8
2022-10-23T01:47:02.603Z,98.8
2022-10-23T01:48:04.589Z,98.8
2022-10-23T01:49:06.601Z,98.8
2022-10-23T01:50:10.619Z,98.8
2022-10-23T01:51:12.582Z,98.8
2022-10-23T01:52:14.593Z,98.8
2022-10-23T01:53:16.592Z,98.8
2022-10-23T01:54:18.597Z,98.8
2022-10-23T01:55:20.611Z,98.8
2022-10-23T01:56:22.683Z,98.8
2022-10-23T01:57:24.593Z,98.8
2022-10-23T01:58:26.600Z,98.8
2022-10-23T01:59:28.594Z,98.8
2022-10-23T02:00:30.597Z,98.8
2022-10-23T02:01:32.755Z,98.8
2022-10-23T02:02:34.755Z,98.8
2022-10-23T02:03:36.605Z,98.8
2022-10-23T02:04:38.593Z,98.8
2022-10-23T02:05:40.597Z,98.8
2022-10-23T02:06:43.626Z,98.8
2022-10-23T02:07:45.702Z,98.8
2022-10-23T02:08:47.645Z,98.8
2022-10-23T02:09:49.611Z,98.8
2022-10-23T02:10:51.596Z,98.8
2022-10-23T02:11:53.648Z,98.8
2022-10-23T02:12:55.608Z,98.8
2022-10-23T02:13:57.600Z,98.8
2022-10-23T02:14:59.602Z,98.8
2022-10-23T02:16:01.607Z,98.8
2022-10-23T02:17:03.645Z,98.8
2022-10-23T02:18:07.613Z,98.8
2022-10-23T02:19:10.617Z,98.8
2022-10-23T02:20:12.606Z,98.8
2022-10-23T02:21:14.604Z,98.8
2022-10-23T02:22:16.815Z,98.8
2022-10-23T02:23:18.609Z,98.8
2022-10-23T02:24:20.613Z,98.8
2022-10-23T02:25:22.613Z,98.8
2022-10-23T02:26:24.615Z,98.8
2022-10-23T02:27:26.652Z,98.8
2022-10-23T02:28:30.615Z,98.8
2022-10-23T02:29:33.612Z,98.8
2022-10-23T02:30:35.610Z,98.8
2022-10-23T02:31:37.620Z,98.8
2022-10-23T02:32:39.816Z,98.8
2022-10-23T02:33:41.611Z,98.8
2022-10-23T02:34:43.618Z,98.8
2022-10-23T02:35:45.622Z,98.8
2022-10-23T02:36:47.622Z,98.8
2022-10-23T02:37:50.648Z,98.8
2022-10-23T02:38:52.624Z,98.8
2022-10-23T02:39:54.629Z,98.8
2022-10-23T02:40:56.624Z,98.8
2022-10-23T02:41:58.633Z,98.8
2022-10-23T02:43:00.666Z,98.8
2022-10-23T02:44:02.624Z,98.8
2022-10-23T02:45:04.630Z,98.8
2022-10-23T02:46:06.642Z,98.8
2022-10-23T02:47:09.630Z,98.8
2022-10-23T02:48:11.706Z,98.8
2022-10-23T02:49:13.635Z,98.8
2022-10-23T02:50:15.627Z,98.8
2022-10-23T02:51:17.626Z,98.8
2022-10-23T02:52:19.623Z,98.8
2022-10-23T02:53:21.819Z,98.8
2022-10-23T02:54:23.763Z,98.8
2022-10-23T02:55:25.634Z,98.8
2022-10-23T02:56:27.638Z,98.8
2022-10-23T02:57:29.645Z,98.8
2022-10-23T02:58:31.640Z,98.8
2022-10-23T02:59:33.637Z,98.8
2022-10-23T03:00:35.633Z,98.8
2022-10-23T03:01:37.748Z,98.8
2022-10-23T03:03:41.637Z,98.8
2022-10-23T03:04:43.641Z,98.8
2022-10-23T03:05:45.644Z,98.8
2022-10-23T03:06:47.649Z,98.8
2022-10-23T03:07:50.640Z,98.8
2022-10-23T03:08:52.641Z,98.8
2022-10-23T03:09:54.687Z,98.8
2022-10-23T03:10:57.643Z,98.8
2022-10-23T03:11:59.642Z,98.8
2022-10-23T03:13:01.646Z,98.8
2022-10-23T03:14:03.650Z,98.8
2022-10-23T03:15:06.673Z,98.8
2022-10-23T03:16:09.673Z,98.8
2022-10-23T03:17:11.654Z,98.8
2022-10-23T03:18:13.652Z,98.8
2022-10-23T03:19:15.656Z,98.8
2022-10-23T03:20:17.650Z,98.8
2022-10-23T03:21:20.686Z,98.8
2022-10-23T03:22:22.655Z,98.8
2022-10-23T03:23:24.651Z,98.8
2022-10-23T03:24:26.651Z,98.8
2022-10-23T03:25:28.676Z,98.8
2022-10-23T03:26:30.685Z,98.8
2022-10-23T03:27:32.657Z,98.8
2022-10-23T03:28:34.654Z,98.8
2022-10-23T03:29:36.653Z,98.8
2022-10-23T03:30:39.681Z,98.8
2022-10-23T03:31:41.652Z,98.8
2022-10-23T03:32:44.035Z,98.8
2022-10-23T03:33:45.655Z,98.8
2022-10-23T03:34:47.658Z,98.8
2022-10-23T03:35:49.726Z,98.8
2022-10-23T03:36:51.665Z,98.8
2022-10-23T03:37:53.657Z,98.8
2022-10-23T03:38:55.663Z,98.8
2022-10-23T03:39:58.667Z,98.8
2022-10-23T03:41:00.745Z,98.8
2022-10-23T03:42:02.665Z,98.8
2022-10-23T03:43:04.676Z,98.8
2022-10-23T03:44:06.690Z,98.8
2022-10-23T03:45:09.668Z,98.8
2022-10-23T03:46:11.712Z,98.8
2022-10-23T03:47:13.666Z,98.8
2022-10-23T03:48:15.669Z,98.8
2022-10-23T03:49:17.677Z,98.8
2022-10-23T03:50:19.698Z,98.8
2022-10-23T03:51:21.712Z,98.8
2022-10-23T03:53:25.688Z,98.8
2022-10-23T03:54:27.672Z,98.8
2022-10-23T03:55:29.673Z,98.8
2022-10-23T03:56:31.735Z,98.8
2022-10-23T03:57:33.673Z,98.8
2022-10-23T03:58:35.679Z,98.8
2022-10-23T03:59:38.681Z,98.8
2022-10-23T04:00:40.730Z,98.8
2022-10-23T04:01:42.820Z,98.8
2022-10-23T04:02:44.947Z,98.8
2022-10-23T04:03:46.687Z,98.8
2022-10-23T04:04:48.693Z,98.8
2022-10-23T04:05:52.367Z,98.8
2022-10-23T04:06:53.690Z,98.8
2022-10-23T04:07:55.693Z,98.8
2022-10-23T04:08:58.708Z,98.8
2022-10-23T04:10:00.683Z,98.8
2022-10-23T04:11:02.699Z,98.8
2022-10-23T04:12:07.734Z,98.8
2022-10-23T04:13:09.692Z,98.8
2022-10-23T04:14:11.687Z,98.8
2022-10-23T04:15:13.692Z,98.8
2022-10-23T04:16:15.883Z,98.8
2022-10-23T04:17:17.807Z,98.8
2022-10-23T04:18:19.694Z,98.8
2022-10-23T04:19:21.690Z,98.8
2022-10-23T04:20:23.828Z,98.8
2022-10-23T04:21:25.689Z,98.8
2022-10-23T04:22:28.581Z,98.8
2022-10-23T04:23:29.695Z,98.8
2022-10-23T04:24:31.699Z,98.8
2022-10-23T04:25:34.748Z,98.8
2022-10-23T04:26:36.698Z,98.8
2022-10-23T04:27:38.729Z,98.8
2022-10-23T04:28:41.699Z,98.8
2022-10-23T04:29:43.702Z,98.8
2022-10-23T04:30:45.707Z,98.8
2022-10-23T04:31:47.778Z,98.8
2022-10-23T04:32:49.730Z,98.8
2022-10-23T04:33:51.804Z,98.8
2022-10-23T04:34:54.701Z,98.8
2022-10-23T04:35:56.704Z,98.8
2022-10-23T04:36:58.699Z,98.8
2022-10-23T04:38:00.748Z,98.8
2022-10-23T04:39:03.718Z,98.8
2022-10-23T04:40:06.725Z,98.8
2022-10-23T04:41:09.707Z,98.8
2022-10-23T04:42:11.720Z,98.8
2022-10-23T04:43:13.750Z,98.8
2022-10-23T04:44:15.718Z,98.8
2022-10-23T04:45:17.715Z,98.8
2022-10-23T04:46:20.712Z,98.8
2022-10-23T04:47:22.822Z,98.8
2022-10-23T04:48:27.014Z,98.8
2022-10-23T04:49:26.722Z,98.8
2022-10-23T04:50:28.715Z,98.8
2022-10-23T04:51:30.718Z,98.8
2022-10-23T04:52:32.722Z,98.8
2022-10-23T04:53:35.717Z,98.8
2022-10-23T04:54:37.728Z,98.8
2022-10-23T04:55:39.731Z,98.8
2022-10-23T04:56:41.719Z,98.8
2022-10-23T04:57:43.720Z,98.8
2022-10-23T04:58:45.727Z,98.8
2022-10-23T04:59:48.720Z,98.8
2022-10-23T05:00:50.778Z,98.8
2022-10-23T05:01:52.798Z,98.8
2022-10-23T05:02:54.765Z,98.8
2022-10-23T05:03:56.724Z,98.8
2022-10-23T05:04:58.726Z,98.8
2022-10-23T05:06:00.730Z,98.8
2022-10-23T05:07:02.735Z,98.8
2022-10-23T05:08:04.729Z,98.8
2022-10-23T05:09:06.744Z,98.8
2022-10-23T05:10:09.726Z,98.8
2022-10-23T05:11:11.727Z,98.8
2022-10-23T05:12:13.731Z,98.8
2022-10-23T05:13:15.735Z,98.8
2022-10-23T05:14:21.984Z,98.8
2022-10-23T05:15:19.734Z,98.8
2022-10-23T05:16:21.740Z,98.8
2022-10-23T05:17:23.882Z,98.8
2022-10-23T05:18:25.744Z,98.8
2022-10-23T05:19:27.743Z,98.8
2022-10-23T05:20:29.746Z,98.8
2022-10-23T05:21:32.738Z,98.8
2022-10-23T05:22:34.737Z,98.8
2022-10-23T05:23:36.767Z,98.8
2022-10-23T05:24:38.740Z,98.8
2022-10-23T05:25:40.741Z,98.8
2022-10-23T05:26:42.745Z,98.8
2022-10-23T05:27:45.161Z,98.8
2022-10-23T05:28:46.776Z,98.8
2022-10-23T05:29:48.745Z,98.8
2022-10-23T05:30:50.746Z,98.8
2022-10-23T05:31:52.753Z,98.8
2022-10-23T05:32:54.748Z,98.8
2022-10-23T05:33:56.791Z,98.8
2022-10-23T05:34:58.746Z,98.8
2022-10-23T05:36:00.750Z,98.8
2022-10-23T05:37:02.747Z,98.8
2022-10-23T05:38:04.752Z,98.8
2022-10-23T05:39:06.806Z,98.8
2022-10-23T05:40:09.747Z,98.8
2022-10-23T05:41:11.746Z,98.8
2022-10-23T05:42:13.755Z,98.8
2022-10-23T05:43:15.770Z,98.8
2022-10-23T05:44:17.783Z,98.8
2022-10-23T05:45:19.749Z,98.8
2022-10-23T05:46:21.757Z,98.8
2022-10-23T05:47:23.880Z,98.8
2022-10-23T05:48:33.948Z,98.8
2022-10-23T05:49:28.255Z,98.8
2022-10-23T05:50:29.765Z,98.8
2022-10-23T05:51:31.756Z,98.8
2022-10-23T05:52:33.761Z,98.8
2022-10-23T05:53:38.743Z,98.8
2022-10-23T05:54:37.953Z,98.8
2022-10-23T05:55:39.764Z,98.8
2022-10-23T05:56:41.776Z,98.8
2022-10-23T05:57:44.067Z,98.8
2022-10-23T05:58:45.763Z,98.8
2022-10-23T05:59:47.799Z,98.8
2022-10-23T06:00:49.792Z,98.8
2022-10-23T06:01:51.873Z,98.8
2022-10-23T06:02:53.767Z,98.8
2022-10-23T06:04:58.803Z,98.8
2022-10-23T06:06:00.804Z,98.8
2022-10-23T06:07:02.771Z,98.8
2022-10-23T06:08:04.774Z,98.8
2022-10-23T06:09:06.797Z,98.8
2022-10-23T06:10:09.784Z,98.8
2022-10-23T06:11:11.798Z,98.8
2022-10-23T06:12:13.771Z,98.8
2022-10-23T06:13:15.770Z,98.8
2022-10-23T06:14:17.779Z,98.8
2022-10-23T06:15:19.775Z,98.8
2022-10-23T06:16:21.829Z,98.8
2022-10-23T06:17:23.911Z,98.8
2022-10-23T06:18:25.777Z,98.8
2022-10-23T06:19:27.779Z,98.8
2022-10-23T06:20:30.869Z,98.8
2022-10-23T06:21:32.806Z,98.8
2022-10-23T06:22:34.786Z,98.8
2022-10-23T06:23:36.791Z,98.8
2022-10-23T06:24:38.778Z,98.8
2022-10-23T06:25:40.786Z,98.8
2022-10-23T06:26:42.817Z,98.8
2022-10-23T06:27:44.793Z,98.8
2022-10-23T06:28:46.783Z,98.8
2022-10-23T06:29:48.792Z,98.8
2022-10-23T06:30:50.790Z,98.8
2022-10-23T06:31:52.814Z,98.8
2022-10-23T06:32:54.785Z,98.8
2022-10-23T06:33:56.794Z,98.8
2022-10-23T06:34:58.823Z,98.8
2022-10-23T06:36:00.792Z,98.8
2022-10-23T06:37:02.814Z,98.8
2022-10-23T06:38:04.790Z,98.8
2022-10-23T06:39:06.851Z,98.8
2022-10-23T06:40:09.841Z,98.8
2022-10-23T06:41:11.791Z,98.8
2022-10-23T06:42:13.796Z,98.8
2022-10-23T06:43:15.817Z,98.8
2022-10-23T06:44:17.800Z,98.8
2022-10-23T06:45:19.833Z,98.8
2022-10-23T06:48:12.359Z,98.8
2022-10-23T06:48:13.089Z,98.8
2022-10-23T06:48:28.802Z,98.8
2022-10-23T06:49:30.851Z,98.8
2022-10-23T06:54:42.608Z,98.8
2022-10-23T06:55:44.562Z,98.8
2022-10-23T06:56:47.535Z,98.8
2022-10-23T06:57:49.550Z,98.8
2022-10-23T06:58:51.530Z,98.8
2022-10-23T06:59:53.568Z,98.8
2022-10-23T07:00:55.620Z,98.8
2022-10-23T07:01:58.356Z,98.8
2022-10-23T07:03:00.351Z,98.8
2022-10-23T07:04:05.345Z,98.8
2022-10-23T07:05:09.896Z,98.8
2022-10-23T07:06:09.353Z,98.8
2022-10-23T07:07:11.347Z,98.8
2022-10-23T07:08:13.368Z,98.8
2022-10-23T07:09:15.347Z,98.8
2022-10-23T07:10:17.363Z,98.8
2022-10-23T07:11:19.378Z,98.8
2022-10-23T07:14:49.843Z,98.8
2022-10-23T07:17:17.415Z,98.8
2022-10-23T07:17:17.934Z,98.8
2022-10-23T07:28:56.522Z,98.8
2022-10-23T07:29:44.362Z,98.8
2022-10-23T07:31:27.184Z,98.8
2022-10-23T07:32:23.663Z,98.8
2022-10-23T07:33:54.366Z,98.8
2022-10-23T07:37:09.563Z,98.8
2022-10-23T07:38:20.335Z,98.8
2022-10-23T07:39:22.302Z,98.8
2022-10-23T07:40:24.297Z,98.8
2022-10-23T07:41:26.296Z,98.8
2022-10-23T07:42:29.348Z,98.8
2022-10-23T07:43:39.338Z,98.8
2022-10-23T07:44:34.300Z,98.8
2022-10-23T07:45:36.346Z,98.8
2022-10-23T07:46:38.295Z,98.8
2022-10-23T07:47:40.461Z,98.8
2022-10-23T07:49:23.665Z,98.8
2022-10-23T07:50:23.712Z,98.8
2022-10-23T07:51:23.686Z,98.8
2022-10-23T07:52:23.679Z,98.8
2022-10-23T07:53:23.680Z,98.8
2022-10-23T07:54:23.685Z,98.8
2022-10-23T07:55:23.709Z,98.8
2022-10-23T07:56:23.707Z,98.8
2022-10-23T07:57:23.698Z,98.8
2022-10-23T07:58:23.686Z,98.8
2022-10-23T07:59:23.687Z,98.8
2022-10-23T08:01:23.838Z,98.8
2022-10-23T08:02:23.736Z,98.8
2022-10-23T08:03:23.697Z,98.8
2022-10-23T08:04:23.689Z,98.8
2022-10-23T08:05:23.746Z,98.8
2022-10-23T08:06:23.690Z,98.8
2022-10-23T08:07:23.710Z,98.8
2022-10-23T08:08:23.686Z,98.8
2022-10-23T08:09:23.712Z,98.8
2022-10-23T08:11:27.339Z,98.8
2022-10-23T08:12:29.335Z,98.8
2022-10-23T08:13:32.363Z,98.8
2022-10-23T08:14:34.335Z,98.8
2022-10-23T08:15:36.315Z,98.8
2022-10-23T08:17:26.266Z,98.8
2022-10-23T08:18:23.695Z,98.8
2022-10-23T08:19:23.704Z,98.8
2022-10-23T08:20:23.693Z,98.8
2022-10-23T08:21:23.727Z,98.8
2022-10-23T08:22:23.719Z,98.8
2022-10-23T08:23:23.734Z,98.8
2022-10-23T08:24:23.706Z,98.8
2022-10-23T08:25:25.135Z,98.8
2022-10-23T08:26:23.697Z,98.8
2022-10-23T08:27:23.706Z,98.8
2022-10-23T08:30:16.630Z,98.8
2022-10-23T08:31:18.652Z,98.8
2022-10-23T08:32:20.632Z,98.8
2022-10-23T08:35:26.950Z,98.8
2022-10-23T08:58:28.265Z,98.8
2022-10-23T08:59:23.730Z,98.8
2022-10-23T09:00:23.745Z,98.8
2022-10-23T09:01:24.082Z,98.8
2022-10-23T09:02:23.829Z,98.8
2022-10-23T09:04:00.865Z,98.8
2022-10-23T09:05:02.848Z,98.8
2022-10-23T09:06:04.897Z,98.8
2022-10-23T09:07:06.937Z,98.8
2022-10-23T09:08:08.892Z,98.8
2022-10-23T09:09:10.872Z,98.8
2022-10-23T09:10:13.864Z,98.8
2022-10-23T09:11:15.951Z,98.8
2022-10-23T09:12:17.895Z,98.8
2022-10-23T09:13:19.863Z,98.8
2022-10-23T09:14:21.888Z,98.8
2022-10-23T09:16:26.915Z,98.8
2022-10-23T09:18:33.980Z,98.8
2022-10-23T09:19:36.480Z,98.8
2022-10-23T09:20:38.469Z,98.7
2022-10-23T09:21:40.539Z,98.4
2022-10-23T09:23:23.750Z,97.5
2022-10-23T09:26:23.876Z,96.5
2022-10-23T09:27:23.855Z,96
2022-10-23T09:28:23.750Z,96
2022-10-23T09:29:23.743Z,96
2022-10-23T09:33:23.797Z,96.7
2022-10-23T09:34:23.752Z,96.5
2022-10-23T09:35:23.819Z,96.4
2022-10-23T09:36:23.819Z,96.9
2022-10-23T09:37:23.797Z,97
2022-10-23T09:38:23.789Z,96.7
2022-10-23T09:39:23.756Z,96.5
2022-10-23T09:40:23.762Z,96.5
2022-10-23T09:41:23.754Z,96.7
2022-10-23T09:42:23.757Z,97.2
2022-10-23T09:43:24.511Z,97.2
2022-10-23T09:44:26.507Z,97.2
2022-10-23T09:45:28.518Z,97.3
2022-10-23T09:46:30.563Z,97.1
2022-10-23T09:47:33.547Z,97.3
2022-10-23T09:48:35.519Z,97.2
2022-10-23T09:49:37.516Z,97.2
2022-10-23T09:50:39.506Z,97
2022-10-23T09:51:41.523Z,96.5
2022-10-23T09:52:43.546Z,96.7
2022-10-23T09:53:45.515Z,95.8
2022-10-23T09:54:47.515Z,96.4
2022-10-23T09:55:49.515Z,96.4
2022-10-23T09:56:53.527Z,96.5
2022-10-23T09:57:55.547Z,96.4
2022-10-23T09:58:57.517Z,95.9
2022-10-23T09:59:59.517Z,95.1
2022-10-23T10:01:01.643Z,95.1
2022-10-23T10:02:03.607Z,95.4
2022-10-23T10:03:05.543Z,95.2
2022-10-23T10:04:07.515Z,94.9
2022-10-23T10:05:23.778Z,94.9
2022-10-23T10:06:23.771Z,94.6
2022-10-23T10:07:23.807Z,94.5
2022-10-23T10:08:23.813Z,93.7
2022-10-23T10:09:23.814Z,93.6
2022-10-23T10:10:23.818Z,94
2022-10-23T10:11:23.797Z,94.3
2022-10-23T10:12:24.531Z,94.3
2022-10-23T10:13:26.525Z,94.2
2022-10-23T10:14:28.559Z,94.1
2022-10-23T10:15:30.563Z,94.1
2022-10-23T10:16:33.650Z,94.6
2022-10-23T10:17:35.547Z,94.9
2022-10-23T10:18:37.538Z,94.1
2022-10-23T10:19:39.566Z,93.6
2022-10-23T10:20:41.537Z,93.5
2022-10-23T10:21:43.538Z,93
2022-10-23T10:22:46.542Z,93.4
2022-10-23T10:23:48.560Z,93.8
2022-10-23T10:24:50.525Z,93.1
2022-10-23T10:25:52.533Z,92
2022-10-23T10:26:54.538Z,91.5
2022-10-23T10:27:56.541Z,91.3
2022-10-23T10:28:58.554Z,91.4
2022-10-23T10:30:00.531Z,90.9
2022-10-23T10:31:02.530Z,91.3
2022-10-23T10:32:06.539Z,91.4
2022-10-23T10:33:08.532Z,90.1
2022-10-23T10:34:10.828Z,89.9
2022-10-23T10:35:13.562Z,90.5
2022-10-23T10:36:15.614Z,91.5
2022-10-23T10:37:17.538Z,90.4
2022-10-23T10:38:19.545Z,89.9
2022-10-23T10:39:21.536Z,90.7
2022-10-23T10:40:23.565Z,89.9
2022-10-23T10:41:25.569Z,88.8
2022-10-23T10:42:27.553Z,89.6
2022-10-23T10:43:31.543Z,90.1
2022-10-23T10:44:33.569Z,89.2
2022-10-23T10:45:35.544Z,88.5
2022-10-23T10:46:37.576Z,88.7
2022-10-23T10:47:39.602Z,88.6
2022-10-23T10:48:41.555Z,87.8
2022-10-23T10:49:43.603Z,88.1
2022-10-23T10:50:45.559Z,88.6
2022-10-23T10:51:47.645Z,89.3
2022-10-23T10:52:49.557Z,89.1
2022-10-23T10:53:51.558Z,88.6
2022-10-23T10:54:53.556Z,89.2
2022-10-23T10:55:55.582Z,88.9
2022-10-23T10:56:57.573Z,88.9
2022-10-23T10:58:00.148Z,87.6
2022-10-23T10:59:01.577Z,88.5
2022-10-23T11:00:03.587Z,87.1
2022-10-23T11:01:05.662Z,86.6
2022-10-23T11:02:07.676Z,85.7
2022-10-23T11:03:09.566Z,85.6
2022-10-23T11:04:13.574Z,85.6
2022-10-23T11:05:15.639Z,85.9
2022-10-23T11:06:17.586Z,85.9
2022-10-23T11:07:19.566Z,85.9
2022-10-23T11:08:23.569Z,85.1
2022-10-23T11:09:25.575Z,83
2022-10-23T11:10:27.578Z,83.4
2022-10-23T11:11:31.624Z,82.4
2022-10-23T11:12:33.568Z,82.2
2022-10-23T11:13:37.577Z,82
2022-10-23T11:14:39.570Z,83.4
2022-10-23T11:15:41.654Z,82.6
2022-10-23T11:16:43.608Z,81.9
2022-10-23T11:17:47.575Z,82
2022-10-23T11:18:49.573Z,81.7
2022-10-23T11:19:51.585Z,81.2
2022-10-23T11:20:55.638Z,80.5
2022-10-23T11:21:59.618Z,80.5
2022-10-23T11:23:03.586Z,81.6
2022-10-23T11:24:07.601Z,80.2
2022-10-23T11:25:09.578Z,79.8
2022-10-23T11:26:18.763Z,80
2022-10-23T11:27:15.747Z,81.3
2022-10-23T11:28:19.584Z,80.6
2022-10-23T11:29:23.585Z,78.6
2022-10-23T11:30:27.580Z,78.4
2022-10-23T11:31:31.589Z,76.8
2022-10-23T11:32:35.637Z,77.5
2022-10-23T11:33:41.377Z,76.1
2022-10-23T11:34:43.589Z,75.9
2022-10-23T11:35:47.657Z,75.3
2022-10-23T11:36:51.631Z,75
2022-10-23T11:37:55.625Z,76.6
2022-10-23T11:38:59.592Z,74.9
2022-10-23T11:40:03.586Z,75.1
2022-10-23T11:41:07.593Z,74.6
2022-10-23T11:42:11.631Z,73.8
2022-10-23T11:43:15.619Z,73.3
2022-10-23T11:44:19.640Z,73.1
2022-10-23T11:45:23.595Z,73
2022-10-23T11:46:27.600Z,73.8
2022-10-23T11:47:34.984Z,73.8
2022-10-23T11:48:35.615Z,75.1
2022-10-23T11:49:39.644Z,75.6
2022-10-23T11:50:43.626Z,76.1
2022-10-23T11:51:47.648Z,76.3
2022-10-23T11:53:09.254Z,76.3
2022-10-23T11:53:55.608Z,76.2
2022-10-23T11:54:59.656Z,76.4
2022-10-23T11:56:03.595Z,75.8
2022-10-23T11:57:10.384Z,77.7
2022-10-23T11:58:09.607Z,78.9
2022-10-23T11:59:13.619Z,78.8
2022-10-23T12:00:17.635Z,78.6
2022-10-23T12:01:19.715Z,78.9
2022-10-23T12:02:21.674Z,77.4
2022-10-23T12:03:25.614Z,79.5
2022-10-23T12:04:27.616Z,78.8
2022-10-23T12:05:31.617Z,80.5
2022-10-23T12:06:52.216Z,81
2022-10-23T12:07:39.618Z,79.3
2022-10-23T12:08:41.612Z,79.1
2022-10-23T12:10:02.360Z,80.1
2022-10-23T12:10:48.345Z,79.7
2022-10-23T12:11:52.169Z,80.5
2022-10-23T12:12:56.153Z,80.3
2022-10-23T12:14:01.183Z,81.6
2022-10-23T12:15:03.164Z,80.8
2022-10-23T12:16:07.186Z,81.2
2022-10-23T12:17:09.171Z,80.1
2022-10-23T12:18:13.162Z,80.1
2022-10-23T12:19:17.179Z,81.3
2022-10-23T12:20:21.181Z,81.3
2022-10-23T12:21:25.203Z,81.5
2022-10-23T12:22:30.223Z,80.7
2022-10-23T12:23:33.210Z,80.4
2022-10-23T12:24:37.178Z,81.5
2022-10-23T12:25:39.174Z,81.6
2022-10-23T12:26:43.208Z,81.1
2022-10-23T12:27:47.180Z,80.7
2022-10-23T12:28:49.196Z,80.7
2022-10-23T12:29:53.234Z,80.7
2022-10-23T12:30:57.265Z,80.6
2022-10-23T12:31:59.170Z,80.9
2022-10-23T12:33:03.187Z,79.9
2022-10-23T12:34:07.175Z,82
2022-10-23T12:35:09.187Z,83.5
2022-10-23T12:36:13.233Z,83.9
2022-10-23T12:37:17.182Z,84.2
2022-10-23T12:38:21.182Z,83.5
2022-10-23T12:39:25.211Z,82.2
2022-10-23T12:40:30.198Z,81.8
2022-10-23T12:41:33.211Z,80.1
2022-10-23T12:42:37.203Z,79.3
2022-10-23T12:43:41.186Z,78.8
2022-10-23T12:44:45.186Z,80.1
2022-10-23T12:45:49.224Z,80.1
2022-10-23T12:46:53.228Z,80.3
2022-10-23T12:47:57.183Z,79.9
2022-10-23T12:49:01.203Z,79.4
2022-10-23T12:50:05.184Z,80.3
2022-10-23T12:52:13.226Z,78.5
2022-10-23T12:53:17.192Z,78.3
2022-10-23T12:54:27.799Z,79.7
2022-10-23T12:55:35.056Z,82
2022-10-23T12:56:35.740Z,81.2
2022-10-23T12:57:37.844Z,80.9
2022-10-23T12:58:39.751Z,81.5
2022-10-23T12:59:41.745Z,80.3
2022-10-23T13:00:45.770Z,78.9
2022-10-23T13:01:52.836Z,79.5
2022-10-23T13:02:53.779Z,79.1
2022-10-23T13:04:23.919Z,80.2
2022-10-23T13:05:23.942Z,79.9
2022-10-23T13:06:23.919Z,79.1
2022-10-23T13:07:23.947Z,79.9
2022-10-23T13:08:23.922Z,80.3
2022-10-23T13:09:23.926Z,79.1
2022-10-23T13:10:23.931Z,79.5
2022-10-23T13:11:23.925Z,79.5
2022-10-23T13:12:25.846Z,79.3
2022-10-23T13:13:30.788Z,80.1
2022-10-23T13:14:33.775Z,80.1
2022-10-23T13:15:37.769Z,79.6
2022-10-23T13:16:41.777Z,80.1
2022-10-23T13:17:46.286Z,80
2022-10-23T13:18:47.784Z,79.5
2022-10-23T13:19:51.779Z,79.3
2022-10-23T13:20:54.819Z,80.2
2022-10-23T13:21:58.771Z,80.4
2022-10-23T13:23:02.978Z,80.9
2022-10-23T13:24:06.781Z,81.3
2022-10-23T13:25:10.785Z,81.1
2022-10-23T13:26:12.790Z,81
2022-10-23T13:27:16.784Z,79.5
2022-10-23T13:28:18.812Z,79.3
2022-10-23T13:29:22.896Z,79.6
2022-10-23T13:30:24.798Z,80.2
2022-10-23T13:31:26.850Z,80.7
2022-10-23T13:32:31.782Z,81
2022-10-23T13:33:35.792Z,84.3
2022-10-23T13:34:37.786Z,80.9
2022-10-23T13:35:41.845Z,80.2
2022-10-23T13:36:47.417Z,80.6
2022-10-23T13:37:47.799Z,80.4
2022-10-23T13:38:51.795Z,81.5
2022-10-23T13:39:53.794Z,81
2022-10-23T13:40:55.810Z,81.9
2022-10-23T13:41:57.854Z,81.8
2022-10-23T13:42:59.795Z,81.9
2022-10-23T13:44:01.792Z,81.9
2022-10-23T13:45:05.792Z,81.9
2022-10-23T13:46:09.812Z,81.9
2022-10-23T13:47:13.879Z,82.3
2022-10-23T13:48:17.811Z,83.3
2022-10-23T13:49:21.802Z,82.1
2022-10-23T13:50:23.822Z,81.7
2022-10-23T13:51:25.966Z,80.4
2022-10-23T13:52:30.853Z,80.9
2022-10-23T13:53:33.803Z,81.8
2022-10-23T13:54:37.806Z,82.5
2022-10-23T13:55:41.792Z,82.7
2022-10-23T13:56:45.822Z,83.5
2022-10-23T13:57:49.813Z,84.6
2022-10-23T13:58:53.831Z,84.5
2022-10-23T13:59:57.803Z,84.3
2022-10-23T14:01:01.985Z,83
2022-10-23T14:02:05.947Z,83.9
2022-10-23T14:03:09.806Z,84.5
2022-10-23T14:04:13.810Z,84.9
2022-10-23T14:05:17.894Z,85.3
2022-10-23T14:06:21.815Z,85.3
2022-10-23T14:07:25.862Z,85.1
2022-10-23T14:08:27.829Z,85.7
2022-10-23T14:09:30.844Z,86.5
2022-10-23T14:10:33.828Z,86.8
2022-10-23T14:11:35.817Z,85.6
2022-10-23T14:12:38.852Z,84.3
2022-10-23T14:13:40.817Z,83
2022-10-23T14:14:42.820Z,84.6
2022-10-23T14:15:44.903Z,82.8
2022-10-23T14:16:46.819Z,83.2
2022-10-23T14:17:48.817Z,83.9
2022-10-23T14:18:50.815Z,84
2022-10-23T14:19:52.819Z,83.7
2022-10-23T14:20:54.854Z,83.3
2022-10-23T14:21:56.822Z,84.7
2022-10-23T14:22:58.845Z,85.2
2022-10-23T14:24:00.823Z,85.8
2022-10-23T14:25:03.842Z,86.6
2022-10-23T14:26:05.863Z,87.1
2022-10-23T14:27:07.825Z,87.4
2022-10-23T14:28:09.823Z,87.6
2022-10-23T14:29:21.217Z,87.8
2022-10-23T14:30:13.844Z,85.9
2022-10-23T14:31:15.832Z,87.1
2022-10-23T14:32:17.834Z,86.9
2022-10-23T14:33:19.884Z,87.1
2022-10-23T14:34:21.832Z,88.1
2022-10-23T14:35:23.865Z,88.3
2022-10-23T14:36:30.942Z,88.4
2022-10-23T14:37:27.843Z,88.6
2022-10-23T14:38:31.858Z,88.6
2022-10-23T14:39:33.835Z,89.1
2022-10-23T14:40:35.865Z,89.4
2022-10-23T14:41:37.890Z,89.5
2022-10-23T14:42:39.846Z,89.1
2022-10-23T14:43:41.843Z,87.9
2022-10-23T14:44:43.887Z,88.4
2022-10-23T14:46:48.480Z,87.7
2022-10-23T14:48:23.998Z,87.3
2022-10-23T14:49:24.002Z,88.5
2022-10-23T14:50:24.005Z,88.5
2022-10-23T14:51:24.056Z,89.3
2022-10-23T14:52:24.009Z,88.7
2022-10-23T14:53:24.013Z,87.6
2022-10-23T14:54:24.011Z,87.9
2022-10-23T14:55:24.007Z,87.6
2022-10-23T14:56:24.029Z,87.8
2022-10-23T14:57:24.044Z,88
2022-10-23T14:58:24.012Z,86.6
2022-10-23T14:59:24.007Z,86.7
2022-10-23T15:00:24.038Z,87.1
2022-10-23T15:01:24.207Z,86
2022-10-23T15:02:24.010Z,85.9